createdAt,value
2022-10-13T00:01:23.794Z,18.55
2022-10-13T00:03:52.900Z,17.55
2022-10-13T00:06:23.470Z,17.38
2022-10-13T00:08:52.332Z,17.08
2022-10-13T00:11:22.990Z,17.20
2022-10-13T00:13:52.134Z,16.52
2022-10-13T00:16:23.195Z,16.38
2022-10-13T00:18:51.607Z,17.50
2022-10-13T00:21:22.204Z,17.55
2022-10-13T00:23:51.212Z,16.27
2022-10-13T00:26:21.509Z,16.65
2022-10-13T00:28:52.761Z,16.08
2022-10-13T00:31:24.189Z,15.77
2022-10-13T00:33:53.307Z,15.60
2022-10-13T00:36:22.974Z,16.83
2022-10-13T00:38:51.874Z,14.95
2022-10-13T00:41:20.029Z,15.25
2022-10-13T00:43:57.562Z,15.23
2022-10-13T00:46:29.240Z,16.13
2022-10-13T00:48:59.230Z,15.25
2022-10-13T00:51:32.470Z,14.85
2022-10-13T00:54:01.590Z,14.73
2022-10-13T00:56:30.805Z,14.23
2022-10-13T00:58:59.640Z,12.43
2022-10-13T01:01:29.714Z,12.10
2022-10-13T01:03:58.274Z,11.50
2022-10-13T01:06:26.540Z,9.77
2022-10-13T01:08:55.301Z,10.07
2022-10-13T01:11:43.517Z,10.57
2022-10-13T01:14:19.946Z,10.75
2022-10-13T01:16:55.466Z,10.48
2022-10-13T01:19:59.681Z,9.63
2022-10-13T01:22:48.846Z,8.27
2022-10-13T01:25:35.443Z,7.38
2022-10-13T01:28:27.737Z,7.05
2022-10-13T01:31:04.519Z,6.90
2022-10-13T01:33:38.804Z,8.02
2022-10-13T01:36:22.338Z,9.40
2022-10-13T01:38:56.723Z,7.35
2022-10-13T01:41:29.847Z,6.85
2022-10-13T01:44:07.165Z,6.67
2022-10-13T01:46:39.297Z,6.38
2022-10-13T01:49:11.803Z,7.10
2022-10-13T01:51:42.188Z,7.47
2022-10-13T01:54:10.793Z,8.07
2022-10-13T01:56:38.878Z,7.75
2022-10-13T01:59:11.578Z,8.43
2022-10-13T02:01:55.050Z,8.00
2022-10-13T02:04:32.105Z,7.00
2022-10-13T02:07:04.602Z,7.77
2022-10-13T02:09:38.701Z,8.25
2022-10-13T02:12:11.132Z,11.50
2022-10-13T02:14:42.536Z,12.50
2022-10-13T02:17:12.579Z,11.32
2022-10-13T02:19:41.922Z,9.00
2022-10-13T02:22:16.108Z,7.88
2022-10-13T02:24:44.925Z,8.43
2022-10-13T02:27:13.653Z,7.15
2022-10-13T02:29:51.328Z,8.02
2022-10-13T02:32:21.984Z,7.60
2022-10-13T02:34:52.111Z,8.10
2022-10-13T02:37:20.242Z,7.47
2022-10-13T02:39:48.759Z,7.85
2022-10-13T02:42:16.886Z,8.32
2022-10-13T02:44:45.044Z,7.30
2022-10-13T02:47:13.752Z,7.35
2022-10-13T02:49:43.225Z,8.75
2022-10-13T02:55:01.366Z,14.13
2022-10-13T02:57:29.971Z,17.88
2022-10-13T02:59:58.044Z,15.15
2022-10-13T03:02:27.973Z,15.85
2022-10-13T03:04:57.850Z,16.95
2022-10-13T03:07:26.002Z,16.30
2022-10-13T03:09:54.551Z,11.38
2022-10-13T03:12:23.013Z,10.27
2022-10-13T03:14:51.253Z,10.93
2022-10-13T03:17:19.974Z,14.27
2022-10-13T03:19:48.376Z,15.65
2022-10-13T03:22:18.713Z,12.65
2022-10-13T03:24:47.598Z,9.93
2022-10-13T03:27:16.177Z,9.85
2022-10-13T03:29:44.663Z,10.45
2022-10-13T03:32:13.200Z,10.23
2022-10-13T03:34:41.961Z,9.75
2022-10-13T03:37:10.160Z,9.65
2022-10-13T03:39:40.155Z,10.15
2022-10-13T03:42:08.428Z,9.90
2022-10-13T03:44:37.050Z,10.20
2022-10-13T03:47:05.167Z,10.20
2022-10-13T03:49:33.707Z,11.13
2022-10-13T03:52:01.847Z,12.68
2022-10-13T03:54:29.988Z,14.55
2022-10-13T03:56:59.537Z,15.55
2022-10-13T03:59:31.810Z,15.43
2022-10-13T04:02:04.001Z,15.52
2022-10-13T04:04:32.618Z,15.98
2022-10-13T04:07:00.736Z,15.57
2022-10-13T04:09:29.206Z,17.25
2022-10-13T04:11:57.740Z,15.57
2022-10-13T04:14:27.546Z,14.82
2022-10-13T04:16:56.101Z,14.95
2022-10-13T04:19:24.769Z,14.98
2022-10-13T04:21:52.921Z,13.98
2022-10-13T04:24:21.445Z,13.48
2022-10-13T04:26:49.998Z,14.05
2022-10-13T04:29:18.639Z,14.17
2022-10-13T04:31:48.175Z,13.48
2022-10-13T04:34:16.724Z,14.02
2022-10-13T04:36:45.668Z,14.15
2022-10-13T04:39:13.778Z,14.40
2022-10-13T04:41:41.907Z,13.77
2022-10-13T04:44:10.513Z,12.75
2022-10-13T04:46:38.614Z,12.93
2022-10-13T04:49:08.527Z,13.10
2022-10-13T04:51:36.694Z,13.10
2022-10-13T04:54:06.083Z,13.23
2022-10-13T04:56:34.535Z,12.80
2022-10-13T04:59:03.096Z,13.88
2022-10-13T05:01:31.275Z,13.32
2022-10-13T05:04:01.679Z,13.65
2022-10-13T05:06:33.598Z,15.30
2022-10-13T05:09:01.982Z,15.48
2022-10-13T05:11:31.432Z,14.68
2022-10-13T05:14:00.305Z,14.30
2022-10-13T05:16:29.778Z,15.05
2022-10-13T05:18:57.945Z,13.75
2022-10-13T05:21:28.945Z,14.05
2022-10-13T05:24:00.045Z,13.80
2022-10-13T05:26:32.465Z,14.10
2022-10-13T05:29:01.797Z,13.85
2022-10-13T05:31:31.403Z,13.73
2022-10-13T05:34:00.136Z,14.60
2022-10-13T05:36:31.291Z,13.95
2022-10-13T05:39:03.682Z,13.80
2022-10-13T05:41:32.931Z,13.05
2022-10-13T05:44:03.218Z,11.93
2022-10-13T05:46:31.818Z,11.95
2022-10-13T05:49:00.207Z,12.02
2022-10-13T05:51:32.475Z,12.38
2022-10-13T05:54:05.729Z,11.55
2022-10-13T05:56:38.579Z,11.70
2022-10-13T05:59:09.970Z,12.88
2022-10-13T06:01:41.053Z,12.40
2022-10-13T06:04:13.686Z,13.25
2022-10-13T06:06:41.937Z,13.60
2022-10-13T06:09:11.874Z,13.57
2022-10-13T06:11:40.074Z,13.18
2022-10-13T06:14:08.180Z,12.73
2022-10-13T06:16:36.904Z,14.05
2022-10-13T06:19:05.835Z,11.65
2022-10-13T06:21:35.870Z,13.73
2022-10-13T06:24:04.158Z,13.57
2022-10-13T06:26:33.738Z,14.77
2022-10-13T06:29:01.975Z,13.23
2022-10-13T06:31:30.168Z,12.88
2022-10-13T06:33:59.645Z,13.00
2022-10-13T06:36:28.239Z,13.13
2022-10-13T06:38:56.366Z,14.35
2022-10-13T06:41:24.507Z,15.40
2022-10-13T06:43:54.024Z,13.85
2022-10-13T06:46:22.592Z,12.77
2022-10-13T06:48:51.985Z,13.15
2022-10-13T06:51:20.458Z,12.27
2022-10-13T06:53:48.674Z,13.57
2022-10-13T06:56:17.478Z,12.98
2022-10-13T06:58:45.869Z,13.93
2022-10-13T07:01:15.890Z,13.30
2022-10-13T07:03:44.239Z,13.38
2022-10-13T07:06:12.732Z,13.00
2022-10-13T07:08:40.836Z,12.75
2022-10-13T07:11:15.297Z,11.60
2022-10-13T07:13:46.608Z,12.32
2022-10-13T07:16:17.598Z,11.60
2022-10-13T07:18:47.884Z,12.70
2022-10-13T07:21:16.801Z,11.52
2022-10-13T07:23:45.031Z,10.27
2022-10-13T07:26:15.899Z,12.40
2022-10-13T07:28:45.343Z,12.30
2022-10-13T07:31:15.453Z,12.35
2022-10-13T07:33:47.400Z,11.52
2022-10-13T07:36:15.836Z,11.63
2022-10-13T07:38:44.387Z,11.82
2022-10-13T07:41:14.203Z,11.95
2022-10-13T07:43:42.547Z,12.48
2022-10-13T07:46:13.417Z,12.63
2022-10-13T07:48:41.828Z,11.48
2022-10-13T07:51:14.200Z,12.55
2022-10-13T07:53:43.813Z,11.85
2022-10-13T07:56:13.380Z,12.63
2022-10-13T07:58:44.571Z,13.80
2022-10-13T08:01:13.866Z,12.82
2022-10-13T08:03:47.143Z,12.65
2022-10-13T08:06:20.214Z,12.73
2022-10-13T08:08:48.596Z,13.15
2022-10-13T08:11:17.984Z,11.60
2022-10-13T08:13:49.722Z,12.35
2022-10-13T08:16:18.786Z,12.05
2022-10-13T08:18:47.048Z,11.40
2022-10-13T08:21:57.140Z,12.30
2022-10-13T08:24:09.580Z,12.07
2022-10-13T08:26:38.865Z,11.98
2022-10-13T08:29:24.270Z,11.95
2022-10-13T08:31:53.665Z,12.30
2022-10-13T08:34:22.996Z,12.60
2022-10-13T08:36:53.751Z,11.60
2022-10-13T08:39:24.536Z,11.95
2022-10-13T08:41:53.659Z,12.50
2022-10-13T08:45:06.236Z,11.40
2022-10-13T08:47:22.164Z,13.13
2022-10-13T08:49:50.749Z,12.70
2022-10-13T08:52:22.530Z,12.23
2022-10-13T08:54:53.004Z,12.80
2022-10-13T08:57:21.883Z,12.05
2022-10-13T08:59:51.542Z,12.05
2022-10-13T09:02:26.756Z,12.63
2022-10-13T09:04:55.622Z,12.30
2022-10-13T09:07:27.656Z,13.70
2022-10-13T09:09:57.719Z,12.50
2022-10-13T09:12:27.073Z,13.32
2022-10-13T09:15:01.844Z,13.07
2022-10-13T09:17:31.844Z,12.05
2022-10-13T09:20:02.507Z,12.40
2022-10-13T09:22:33.168Z,12.30
2022-10-13T09:25:20.555Z,13.52
2022-10-13T09:27:52.193Z,11.90
2022-10-13T09:30:31.048Z,13.25
2022-10-13T09:33:24.861Z,13.40
2022-10-13T09:36:12.657Z,12.23
2022-10-13T09:38:43.145Z,13.18
2022-10-13T09:41:20.810Z,13.05
2022-10-13T09:44:03.036Z,13.90
2022-10-13T09:46:35.270Z,12.55
2022-10-13T09:49:07.139Z,13.57
2022-10-13T09:51:39.255Z,13.48
2022-10-13T09:54:25.836Z,14.82
2022-10-13T09:57:00.076Z,13.43
2022-10-13T09:59:34.716Z,14.80
2022-10-13T10:02:05.296Z,14.15
2022-10-13T10:04:39.072Z,15.80
2022-10-13T10:07:13.441Z,14.85
2022-10-13T10:09:46.485Z,14.75
2022-10-13T10:12:25.457Z,14.13
2022-10-13T10:14:56.361Z,13.18
2022-10-13T10:17:31.813Z,13.48
2022-10-13T10:20:15.181Z,14.30
2022-10-13T10:22:51.094Z,12.48
2022-10-13T10:25:28.058Z,13.57
2022-10-13T10:28:24.962Z,12.65
2022-10-13T10:31:00.683Z,12.65
2022-10-13T10:33:47.059Z,12.73
2022-10-13T10:36:19.001Z,12.35
2022-10-13T10:38:53.107Z,12.70
2022-10-13T10:41:35.980Z,15.10
2022-10-13T10:44:09.544Z,13.68
2022-10-13T10:46:41.685Z,14.07
2022-10-13T10:49:18.276Z,12.98
2022-10-13T10:51:46.963Z,12.38
2022-10-13T10:54:32.579Z,14.25
2022-10-13T10:57:07.334Z,13.32
2022-10-13T10:59:50.843Z,13.55
2022-10-13T11:02:36.770Z,14.18
2022-10-13T11:05:06.673Z,14.60
2022-10-13T11:07:58.428Z,13.63
2022-10-13T11:10:27.298Z,13.20
2022-10-13T11:13:21.419Z,13.32
2022-10-13T11:15:51.212Z,12.32
2022-10-13T11:19:06.202Z,12.63
2022-10-13T11:22:19.683Z,13.00
2022-10-13T11:25:03.473Z,12.27
2022-10-13T11:27:45.296Z,13.52
2022-10-13T11:30:43.650Z,12.40
2022-10-13T11:33:35.733Z,12.23
2022-10-13T11:36:41.584Z,12.52
2022-10-13T11:39:43.328Z,11.35
2022-10-13T11:42:37.858Z,12.35
2022-10-13T11:45:22.211Z,12.02
2022-10-13T11:48:22.915Z,12.85
2022-10-13T11:51:01.373Z,11.13
2022-10-13T11:53:35.397Z,11.50
2022-10-13T11:56:03.907Z,11.65
2022-10-13T11:58:34.070Z,12.70
2022-10-13T12:01:06.821Z,12.80
2022-10-13T12:03:36.831Z,12.05
2022-10-13T12:06:08.679Z,12.50
2022-10-13T12:08:38.927Z,11.30
2022-10-13T12:11:10.503Z,12.88
2022-10-13T12:13:38.668Z,13.60
2022-10-13T12:16:09.291Z,12.70
2022-10-13T12:18:39.614Z,12.15
2022-10-13T12:21:14.251Z,12.57
2022-10-13T12:23:42.753Z,12.07
2022-10-13T12:26:17.208Z,12.45
2022-10-13T12:28:50.556Z,12.88
2022-10-13T12:31:21.654Z,11.18
2022-10-13T12:33:57.663Z,10.75
2022-10-13T12:36:31.613Z,11.93
2022-10-13T12:39:02.944Z,10.48
2022-10-13T12:41:33.660Z,11.73
2022-10-13T12:44:05.763Z,9.55
2022-10-13T12:46:42.535Z,10.02
2022-10-13T12:49:16.266Z,9.32
2022-10-13T12:51:49.171Z,12.02
2022-10-13T12:54:25.129Z,10.27
2022-10-13T12:56:56.567Z,10.50
2022-10-13T12:59:26.937Z,11.30
2022-10-13T13:02:01.283Z,10.65
2022-10-13T13:04:32.635Z,11.13
2022-10-13T13:07:03.903Z,10.63
2022-10-13T13:09:34.205Z,10.82
2022-10-13T13:12:24.438Z,10.60
2022-10-13T13:14:55.162Z,10.27
2022-10-13T13:20:26.778Z,10.02
2022-10-13T13:22:56.869Z,9.88
2022-10-13T13:25:25.492Z,9.77
2022-10-13T13:27:54.513Z,11.05
2022-10-13T13:30:24.660Z,9.88
2022-10-13T13:32:52.749Z,9.75
2022-10-13T13:35:21.280Z,9.77
2022-10-13T13:37:51.293Z,9.32
2022-10-13T13:40:23.096Z,9.73
2022-10-13T13:42:51.337Z,9.38
2022-10-13T13:45:22.705Z,9.88
2022-10-13T13:47:51.417Z,9.95
2022-10-13T13:50:23.700Z,8.95
2022-10-13T13:52:51.867Z,9.02
2022-10-13T13:55:22.923Z,11.43
2022-10-13T13:57:51.127Z,9.50
2022-10-13T14:00:21.881Z,10.25
2022-10-13T14:02:50.314Z,10.45
2022-10-13T14:05:18.988Z,10.10
2022-10-13T14:07:47.609Z,9.50
2022-10-13T14:10:15.845Z,10.13
2022-10-13T14:12:45.929Z,9.77
2022-10-13T14:15:14.080Z,9.70
2022-10-13T14:17:42.232Z,10.70
2022-10-13T14:20:11.541Z,10.32
2022-10-13T14:22:40.280Z,10.45
2022-10-13T14:25:09.366Z,10.38
2022-10-13T14:27:37.850Z,9.30
2022-10-13T14:30:09.971Z,9.65
2022-10-13T14:32:38.524Z,9.38
2022-10-13T14:35:07.827Z,9.23
2022-10-13T14:37:36.244Z,11.50
2022-10-13T14:40:05.295Z,10.50
2022-10-13T14:42:33.400Z,11.38
2022-10-13T14:45:04.457Z,11.93
2022-10-13T14:47:33.970Z,12.10
2022-10-13T14:50:03.023Z,12.45
2022-10-13T14:52:31.176Z,10.80
2022-10-13T14:54:59.295Z,11.35
2022-10-13T14:57:28.095Z,9.27
2022-10-13T15:00:00.890Z,9.77
2022-10-13T15:02:31.500Z,9.18
2022-10-13T15:05:01.127Z,10.55
2022-10-13T15:07:29.240Z,9.98
2022-10-13T15:10:06.535Z,9.13
2022-10-13T15:12:35.186Z,9.75
2022-10-13T15:15:04.140Z,9.30
2022-10-13T15:17:33.272Z,9.40
2022-10-13T15:20:03.836Z,9.00
2022-10-13T15:22:31.955Z,8.57
2022-10-13T15:25:00.572Z,7.85
2022-10-13T15:27:29.113Z,7.68
2022-10-13T15:29:57.226Z,8.07
2022-10-13T15:32:25.580Z,7.82
2022-10-13T15:34:54.843Z,6.60
2022-10-13T15:37:24.743Z,6.88
2022-10-13T15:39:57.033Z,6.80
2022-10-13T15:42:26.094Z,6.75
2022-10-13T15:45:11.067Z,6.82
2022-10-13T15:47:40.406Z,6.30
2022-10-13T15:50:10.069Z,7.38
2022-10-13T15:52:41.783Z,7.28
2022-10-13T15:55:11.146Z,7.68
2022-10-13T15:57:40.381Z,7.78
2022-10-13T16:00:13.887Z,7.47
2022-10-13T16:02:42.854Z,8.23
2022-10-13T16:05:13.611Z,8.32
2022-10-13T16:07:43.735Z,7.35
2022-10-13T16:10:14.200Z,6.95
2022-10-13T16:12:46.976Z,6.07
2022-10-13T16:15:18.448Z,5.93
2022-10-13T16:17:46.662Z,6.18
2022-10-13T16:20:14.788Z,6.93
2022-10-13T16:22:44.412Z,6.30
2022-10-13T16:25:12.705Z,8.18
2022-10-13T16:27:44.272Z,7.05
2022-10-13T16:30:13.938Z,8.48
2022-10-13T16:32:42.581Z,7.82
2022-10-13T16:35:11.783Z,8.85
2022-10-13T16:37:40.031Z,8.77
2022-10-13T16:40:10.918Z,9.40
2022-10-13T16:42:39.107Z,8.85
2022-10-13T16:45:08.455Z,8.45
2022-10-13T16:47:36.979Z,10.23
2022-10-13T16:50:09.333Z,8.60
2022-10-13T16:52:38.471Z,10.32
2022-10-13T16:55:07.829Z,9.65
2022-10-13T16:57:37.785Z,9.38
2022-10-13T17:00:07.045Z,8.43
2022-10-13T17:02:36.871Z,9.85
2022-10-13T17:05:05.358Z,9.75
2022-10-13T17:07:33.893Z,10.02
2022-10-13T17:10:03.577Z,12.43
2022-10-13T17:12:31.676Z,12.00
2022-10-13T17:15:01.169Z,12.68
2022-10-13T17:17:29.834Z,11.65
2022-10-13T17:19:57.894Z,12.10
2022-10-13T17:22:26.417Z,11.52
2022-10-13T17:24:55.436Z,9.85
2022-10-13T17:27:23.994Z,10.35
2022-10-13T17:29:53.933Z,9.98
2022-10-13T17:32:23.794Z,9.73
2022-10-13T17:34:52.441Z,9.43
2022-10-13T17:37:20.851Z,9.52
2022-10-13T17:39:49.333Z,8.88
2022-10-13T17:42:17.895Z,9.77
2022-10-13T17:44:45.980Z,13.90
2022-10-13T17:47:14.547Z,14.75
2022-10-13T17:49:44.122Z,13.82
2022-10-13T17:52:12.268Z,13.02
2022-10-13T17:54:40.348Z,13.13
2022-10-13T17:57:10.390Z,12.05
2022-10-13T17:59:38.530Z,11.50
2022-10-13T18:02:06.759Z,11.15
2022-10-13T18:04:35.047Z,11.50
2022-10-13T18:07:04.604Z,11.55
2022-10-13T18:09:32.753Z,16.23
2022-10-13T18:12:00.900Z,14.15
2022-10-13T18:14:29.348Z,20.02
2022-10-13T18:16:57.502Z,19.58
2022-10-13T18:19:25.700Z,21.17
2022-10-13T18:21:53.911Z,16.88
2022-10-13T18:24:25.172Z,14.85
2022-10-13T18:26:53.300Z,17.58
2022-10-13T18:29:21.901Z,18.02
2022-10-13T18:31:50.795Z,17.08
2022-10-13T18:34:19.476Z,14.00
2022-10-13T18:36:49.588Z,15.07
2022-10-13T18:39:19.980Z,13.85
2022-10-13T18:41:50.443Z,14.90
2022-10-13T18:44:19.046Z,14.65
2022-10-13T18:46:50.207Z,13.52
2022-10-13T18:49:20.623Z,13.32
2022-10-13T18:51:52.375Z,11.70
2022-10-13T18:54:20.584Z,11.48
2022-10-13T18:56:50.228Z,11.02
2022-10-13T18:59:19.851Z,10.73
2022-10-13T19:01:48.192Z,10.70
2022-10-13T19:04:17.576Z,11.07
2022-10-13T19:06:46.889Z,9.98
2022-10-13T19:09:17.395Z,10.20
2022-10-13T19:11:46.131Z,11.00
2022-10-13T19:14:15.617Z,10.75
2022-10-13T19:16:45.327Z,11.13
2022-10-13T19:19:13.927Z,10.50
2022-10-13T19:21:42.875Z,11.05
2022-10-13T19:24:11.894Z,11.15
2022-10-13T19:26:40.380Z,9.60
2022-10-13T19:29:10.989Z,10.98
2022-10-13T19:31:42.373Z,10.50
2022-10-13T19:34:12.670Z,11.35
2022-10-13T19:36:43.307Z,11.15
2022-10-13T19:39:16.719Z,10.25
2022-10-13T19:41:46.165Z,10.50
2022-10-13T19:44:15.843Z,10.75
2022-10-13T19:46:46.686Z,10.32
2022-10-13T19:49:16.942Z,10.35
2022-10-13T19:51:45.437Z,10.10
2022-10-13T19:54:15.057Z,10.75
2022-10-13T19:56:43.585Z,11.23
2022-10-13T19:59:12.214Z,11.18
2022-10-13T20:01:41.216Z,11.10
2022-10-13T20:04:11.756Z,10.27
2022-10-13T20:06:39.903Z,10.45
2022-10-13T20:09:08.571Z,11.15
2022-10-13T20:11:37.216Z,10.18
2022-10-13T20:14:05.523Z,10.50
2022-10-13T20:16:34.204Z,12.40
2022-10-13T20:19:02.407Z,9.90
2022-10-13T20:21:31.943Z,9.13
2022-10-13T20:24:00.759Z,9.52
2022-10-13T20:26:29.179Z,9.45
2022-10-13T20:28:58.244Z,9.82
2022-10-13T20:31:27.031Z,9.80
2022-10-13T20:33:56.526Z,9.85
2022-10-13T20:36:26.936Z,10.15
2022-10-13T20:38:56.649Z,9.13
2022-10-13T20:41:27.611Z,10.57
2022-10-13T20:43:58.200Z,9.77
2022-10-13T20:46:27.517Z,9.48
2022-10-13T20:49:12.952Z,10.82
2022-10-13T20:51:45.385Z,11.25
2022-10-13T20:54:16.510Z,12.15
2022-10-13T20:56:45.343Z,11.38
2022-10-13T20:59:15.560Z,11.23
2022-10-13T21:01:44.302Z,10.20
2022-10-13T21:04:12.463Z,9.02
2022-10-13T21:06:41.172Z,9.80
2022-10-13T21:09:09.980Z,9.50
2022-10-13T21:11:39.981Z,9.38
2022-10-13T21:14:10.879Z,11.38
2022-10-13T21:16:39.820Z,10.68
2022-10-13T21:19:08.292Z,10.60
2022-10-13T21:21:37.539Z,11.35
2022-10-13T21:24:07.478Z,10.02
2022-10-13T21:26:36.176Z,9.75
2022-10-13T21:29:06.356Z,9.60
2022-10-13T21:31:34.452Z,9.13
2022-10-13T21:34:03.609Z,10.02
2022-10-13T21:36:34.251Z,9.10
2022-10-13T21:39:04.747Z,10.48
2022-10-13T21:41:33.383Z,10.07
2022-10-13T21:44:01.455Z,10.07
2022-10-13T21:46:32.766Z,9.70
2022-10-13T21:49:03.663Z,10.15
2022-10-13T21:51:33.572Z,8.80
2022-10-13T21:54:03.464Z,9.68
2022-10-13T21:56:32.632Z,9.45
2022-10-13T21:59:01.954Z,8.30
2022-10-13T22:01:31.691Z,8.63
2022-10-13T22:04:02.105Z,9.02
2022-10-13T22:06:31.994Z,8.82
2022-10-13T22:09:02.475Z,9.02
2022-10-13T22:11:33.571Z,8.95
2022-10-13T22:14:02.281Z,8.50
2022-10-13T22:16:35.454Z,9.07
2022-10-13T22:19:04.254Z,9.05
2022-10-13T22:21:34.661Z,8.18
2022-10-13T22:24:05.171Z,8.73
2022-10-13T22:26:36.148Z,8.65
2022-10-13T22:29:07.078Z,8.23
2022-10-13T22:31:36.954Z,7.85
2022-10-13T22:34:05.255Z,8.52
2022-10-13T22:36:33.357Z,8.77
2022-10-13T22:39:03.829Z,7.78
2022-10-13T22:41:33.701Z,7.60
2022-10-13T22:44:03.236Z,8.13
2022-10-13T22:46:34.058Z,7.85
2022-10-13T22:49:03.834Z,8.23
2022-10-13T22:51:34.302Z,8.52
2022-10-13T22:54:03.193Z,8.85
2022-10-13T22:56:34.133Z,7.50
2022-10-13T22:59:04.537Z,8.57
2022-10-13T23:01:33.389Z,8.88
2022-10-13T23:04:03.343Z,7.93
2022-10-13T23:06:33.184Z,8.27
2022-10-13T23:09:02.431Z,7.50
2022-10-13T23:11:31.137Z,8.10
2022-10-13T23:13:59.245Z,8.27
2022-10-13T23:16:28.840Z,8.50
2022-10-13T23:18:57.024Z,8.35
2022-10-13T23:21:29.505Z,7.82
2022-10-13T23:23:58.449Z,8.60
2022-10-13T23:26:27.756Z,7.78
2022-10-13T23:28:57.479Z,7.47
2022-10-13T23:31:26.319Z,8.70
2022-10-13T23:33:54.658Z,8.10
2022-10-13T23:36:28.585Z,8.23
2022-10-13T23:38:57.454Z,7.93
2022-10-13T23:41:26.113Z,8.35
2022-10-13T23:43:54.284Z,8.40
2022-10-13T23:46:23.322Z,8.57
2022-10-13T23:48:51.677Z,9.30
2022-10-13T23:51:22.049Z,8.48
2022-10-13T23:53:52.902Z,7.57
2022-10-13T23:56:21.076Z,8.35
2022-10-13T23:58:50.374Z,8.75
